createdAt,value
2023-05-22T00:00:21.453Z,20.11
2023-05-22T00:00:52.904Z,20.12
2023-05-22T00:01:24.364Z,20.11
2023-05-22T00:01:55.822Z,20.11
2023-05-22T00:02:27.356Z,20.12
2023-05-22T00:02:59.059Z,20.11
2023-05-22T00:03:30.730Z,20.11
2023-05-22T00:04:02.210Z,20.11
2023-05-22T00:04:33.664Z,20.10
2023-05-22T00:05:05.143Z,20.10
2023-05-22T00:05:36.698Z,20.08
2023-05-22T00:06:08.210Z,20.08
2023-05-22T00:06:39.641Z,20.08
2023-05-22T00:07:11.079Z,20.07
2023-05-22T00:07:42.526Z,20.06
2023-05-22T00:08:14.083Z,20.07
2023-05-22T00:08:45.559Z,20.07
2023-05-22T00:09:17.011Z,20.06
2023-05-22T00:09:48.452Z,20.06
2023-05-22T00:10:19.888Z,20.05
2023-05-22T00:10:51.323Z,20.05
2023-05-22T00:11:22.766Z,20.06
2023-05-22T00:11:54.239Z,20.05
2023-05-22T00:12:25.682Z,20.05
2023-05-22T00:12:57.123Z,20.03
2023-05-22T00:13:28.572Z,20.05
2023-05-22T00:14:00.072Z,20.03
2023-05-22T00:14:31.545Z,20.02
2023-05-22T00:15:02.994Z,20.03
2023-05-22T00:15:34.486Z,20.03
2023-05-22T00:16:05.926Z,20.01
2023-05-22T00:16:37.482Z,20.01
2023-05-22T00:17:09.041Z,20.01
2023-05-22T00:17:40.540Z,20.01
2023-05-22T00:18:12.041Z,20.01
2023-05-22T00:18:43.560Z,20.01
2023-05-22T00:19:15.074Z,20.00
2023-05-22T00:19:46.551Z,20.01
2023-05-22T00:20:17.988Z,20.00
2023-05-22T00:20:49.421Z,19.99
2023-05-22T00:21:20.859Z,19.99
2023-05-22T00:21:52.295Z,20.00
2023-05-22T00:22:23.731Z,19.99
2023-05-22T00:22:55.179Z,19.98
2023-05-22T00:23:26.669Z,19.98
2023-05-22T00:23:58.100Z,19.99
2023-05-22T00:24:29.580Z,19.97
2023-05-22T00:25:01.032Z,19.98
2023-05-22T00:25:32.472Z,19.97
2023-05-22T00:26:03.902Z,19.97
2023-05-22T00:26:35.349Z,19.97
2023-05-22T00:27:06.781Z,19.96
2023-05-22T00:27:38.216Z,19.94
2023-05-22T00:28:09.689Z,19.93
2023-05-22T00:28:41.125Z,19.94
2023-05-22T00:29:12.566Z,19.93
2023-05-22T00:29:44.036Z,19.93
2023-05-22T00:30:15.471Z,19.93
2023-05-22T00:30:46.917Z,19.93
2023-05-22T00:31:18.373Z,19.93
2023-05-22T00:31:49.860Z,19.92
2023-05-22T00:32:21.312Z,19.93
2023-05-22T00:32:52.786Z,19.92
2023-05-22T00:33:24.228Z,19.92
2023-05-22T00:33:55.742Z,19.91
2023-05-22T00:34:27.296Z,19.90
2023-05-22T00:34:58.887Z,19.91
2023-05-22T00:35:30.326Z,19.91
2023-05-22T00:36:01.768Z,19.90
2023-05-22T00:36:33.200Z,19.91
2023-05-22T00:37:04.639Z,19.90
2023-05-22T00:37:36.077Z,19.90
2023-05-22T00:38:07.533Z,19.89
2023-05-22T00:38:38.976Z,19.88
2023-05-22T00:39:10.417Z,19.91
2023-05-22T00:39:41.856Z,19.89
2023-05-22T00:40:13.337Z,19.90
2023-05-22T00:40:44.792Z,19.89
2023-05-22T00:41:16.230Z,19.90
2023-05-22T00:41:47.687Z,19.89
2023-05-22T00:42:19.129Z,19.89
2023-05-22T00:42:50.580Z,19.88
2023-05-22T00:43:22.033Z,19.89
2023-05-22T00:43:53.489Z,19.89
2023-05-22T00:44:24.932Z,19.89
2023-05-22T00:44:56.388Z,19.90
2023-05-22T00:45:28.007Z,19.90
2023-05-22T00:45:59.452Z,19.89
2023-05-22T00:46:30.912Z,19.89
2023-05-22T00:47:02.524Z,19.90
2023-05-22T00:47:34.120Z,19.89
2023-05-22T00:48:05.643Z,19.90
2023-05-22T00:48:37.082Z,19.89
2023-05-22T00:49:08.515Z,19.90
2023-05-22T00:49:39.946Z,19.89
2023-05-22T00:50:11.381Z,19.89
2023-05-22T00:50:42.847Z,19.90
2023-05-22T00:51:14.295Z,19.89
2023-05-22T00:51:45.789Z,19.89
2023-05-22T00:52:17.256Z,19.90
2023-05-22T00:52:48.701Z,19.89
2023-05-22T00:53:20.146Z,19.89
2023-05-22T00:53:51.587Z,19.89
2023-05-22T00:54:23.031Z,19.89
2023-05-22T00:54:54.466Z,19.89
2023-05-22T00:55:25.975Z,19.89
2023-05-22T00:55:57.452Z,19.89
2023-05-22T00:56:28.894Z,19.89
2023-05-22T00:57:00.357Z,19.89
2023-05-22T00:57:31.813Z,19.90
2023-05-22T00:58:03.253Z,19.90
2023-05-22T00:58:34.685Z,19.90
2023-05-22T00:59:06.131Z,19.89
2023-05-22T00:59:37.569Z,19.90
2023-05-22T01:00:09.013Z,19.89
2023-05-22T01:00:40.753Z,19.90
2023-05-22T01:01:12.463Z,19.89
2023-05-22T01:01:43.910Z,19.88
2023-05-22T01:02:15.441Z,19.88
2023-05-22T01:02:47.125Z,19.88
2023-05-22T01:03:18.736Z,19.89
2023-05-22T01:03:50.291Z,19.88
2023-05-22T01:04:21.788Z,19.89
2023-05-22T01:04:53.221Z,19.90
2023-05-22T01:05:24.664Z,19.89
2023-05-22T01:05:56.100Z,19.89
2023-05-22T01:06:27.580Z,19.89
2023-05-22T01:06:59.028Z,19.90
2023-05-22T01:07:30.463Z,19.89
2023-05-22T01:08:01.899Z,19.89
2023-05-22T01:08:33.425Z,19.88
2023-05-22T01:09:04.876Z,19.88
2023-05-22T01:09:36.322Z,19.89
2023-05-22T01:10:07.751Z,19.89
2023-05-22T01:10:39.388Z,19.88
2023-05-22T01:11:10.917Z,19.88
2023-05-22T01:11:42.398Z,19.89
2023-05-22T01:12:13.829Z,19.89
2023-05-22T01:12:45.286Z,19.89
2023-05-22T01:13:16.737Z,19.88
2023-05-22T01:13:48.172Z,19.88
2023-05-22T01:14:19.604Z,19.88
2023-05-22T01:14:51.040Z,19.88
2023-05-22T01:15:22.488Z,19.89
2023-05-22T01:15:53.988Z,19.88
2023-05-22T01:16:25.575Z,19.88
2023-05-22T01:16:57.128Z,19.88
2023-05-22T01:17:28.638Z,19.88
2023-05-22T01:18:00.287Z,19.87
2023-05-22T01:18:31.799Z,19.87
2023-05-22T01:19:03.274Z,19.87
2023-05-22T01:19:34.757Z,19.86
2023-05-22T01:20:06.257Z,19.86
2023-05-22T01:20:37.874Z,19.86
2023-05-22T01:21:09.549Z,19.86
2023-05-22T01:21:40.984Z,19.85
2023-05-22T01:22:12.471Z,19.85
2023-05-22T01:22:43.908Z,19.83
2023-05-22T01:23:15.350Z,19.85
2023-05-22T01:23:46.791Z,19.84
2023-05-22T01:24:18.223Z,19.85
2023-05-22T01:24:49.664Z,19.84
2023-05-22T01:25:21.152Z,19.84
2023-05-22T01:25:52.612Z,19.84
2023-05-22T01:26:24.062Z,19.84
2023-05-22T01:26:55.512Z,19.84
2023-05-22T01:27:27.000Z,19.83
2023-05-22T01:27:58.441Z,19.82
2023-05-22T01:28:29.920Z,19.82
2023-05-22T01:29:01.361Z,19.81
2023-05-22T01:29:32.805Z,19.79
2023-05-22T01:30:04.541Z,19.79
2023-05-22T01:30:36.162Z,19.79
2023-05-22T01:31:07.626Z,19.79
2023-05-22T01:31:39.071Z,19.77
2023-05-22T01:32:10.517Z,19.78
2023-05-22T01:32:42.022Z,19.76
2023-05-22T01:33:13.612Z,19.77
2023-05-22T01:33:45.258Z,19.76
2023-05-22T01:34:16.731Z,19.76
2023-05-22T01:34:48.167Z,19.75
2023-05-22T01:35:19.606Z,19.76
2023-05-22T01:35:51.069Z,19.75
2023-05-22T01:36:22.550Z,19.75
2023-05-22T01:36:54.001Z,19.74
2023-05-22T01:37:25.445Z,19.73
2023-05-22T01:37:56.925Z,19.73
2023-05-22T01:38:28.422Z,19.73
2023-05-22T01:38:59.870Z,19.72
2023-05-22T01:39:31.312Z,19.72
2023-05-22T01:40:02.785Z,19.72
2023-05-22T01:40:34.234Z,19.71
2023-05-22T01:41:05.678Z,19.70
2023-05-22T01:41:37.106Z,19.71
2023-05-22T01:42:08.564Z,19.71
2023-05-22T01:42:40.001Z,19.71
2023-05-22T01:43:11.473Z,19.71
2023-05-22T01:43:42.911Z,19.70
2023-05-22T01:44:14.366Z,19.70
2023-05-22T01:44:45.812Z,19.69
2023-05-22T01:45:17.248Z,19.67
2023-05-22T01:45:48.723Z,19.68
2023-05-22T01:46:20.325Z,19.68
2023-05-22T01:46:51.869Z,19.69
2023-05-22T01:47:23.408Z,19.69
2023-05-22T01:47:54.974Z,19.69
2023-05-22T01:48:26.479Z,19.69
2023-05-22T01:48:57.945Z,19.69
2023-05-22T01:49:29.395Z,19.68
2023-05-22T01:50:00.845Z,19.69
2023-05-22T01:50:32.293Z,19.69
2023-05-22T01:51:03.736Z,19.68
2023-05-22T01:51:35.186Z,19.67
2023-05-22T01:52:06.658Z,19.67
2023-05-22T01:52:38.102Z,19.68
2023-05-22T01:53:09.556Z,19.68
2023-05-22T01:53:41.003Z,19.68
2023-05-22T01:54:12.559Z,19.66
2023-05-22T01:54:44.021Z,19.67
2023-05-22T01:55:15.474Z,19.68
2023-05-22T01:55:46.973Z,19.67
2023-05-22T01:56:18.403Z,19.68
2023-05-22T01:56:49.886Z,19.67
2023-05-22T01:57:21.340Z,19.67
2023-05-22T01:57:52.788Z,19.67
2023-05-22T01:58:24.218Z,19.67
2023-05-22T01:58:55.721Z,19.67
2023-05-22T01:59:27.177Z,19.67
2023-05-22T01:59:58.621Z,19.66
2023-05-22T02:00:30.071Z,19.67
2023-05-22T02:01:01.630Z,19.67
2023-05-22T02:01:33.202Z,19.67
2023-05-22T02:02:05.081Z,19.65
2023-05-22T02:02:36.653Z,19.66
2023-05-22T02:03:08.277Z,19.65
2023-05-22T02:03:39.902Z,19.65
2023-05-22T02:04:11.411Z,19.65
2023-05-22T02:04:42.920Z,19.65
2023-05-22T02:05:14.365Z,19.65
2023-05-22T02:05:45.812Z,19.65
2023-05-22T02:06:17.262Z,19.64
2023-05-22T02:06:48.711Z,19.64
2023-05-22T02:07:20.154Z,19.64
2023-05-22T02:07:51.616Z,19.64
2023-05-22T02:08:23.073Z,19.63
2023-05-22T02:08:54.510Z,19.63
2023-05-22T02:09:25.955Z,19.63
2023-05-22T02:09:57.434Z,19.64
2023-05-22T02:10:28.880Z,19.63
2023-05-22T02:11:00.332Z,19.63
2023-05-22T02:11:31.785Z,19.63
2023-05-22T02:12:03.317Z,19.63
2023-05-22T02:12:34.793Z,19.62
2023-05-22T02:13:06.260Z,19.63
2023-05-22T02:13:37.691Z,19.63
2023-05-22T02:14:09.144Z,19.62
2023-05-22T02:14:40.607Z,19.62
2023-05-22T02:15:12.057Z,19.63
2023-05-22T02:15:43.533Z,19.62
2023-05-22T02:16:15.027Z,19.61
2023-05-22T02:16:46.518Z,19.61
2023-05-22T02:17:17.955Z,19.61
2023-05-22T02:17:49.473Z,19.61
2023-05-22T02:18:20.991Z,19.61
2023-05-22T02:18:52.509Z,19.61
2023-05-22T02:19:23.989Z,19.62
2023-05-22T02:19:55.457Z,19.61
2023-05-22T02:20:26.953Z,19.60
2023-05-22T02:20:58.415Z,19.60
2023-05-22T02:21:29.857Z,19.60
2023-05-22T02:22:01.324Z,19.60
2023-05-22T02:22:32.772Z,19.60
2023-05-22T02:23:04.212Z,19.60
2023-05-22T02:23:35.654Z,19.59
2023-05-22T02:24:07.111Z,19.60
2023-05-22T02:24:38.769Z,19.59
2023-05-22T02:25:10.222Z,19.59
2023-05-22T02:25:41.700Z,19.59
2023-05-22T02:26:13.165Z,19.59
2023-05-22T02:26:44.617Z,19.58
2023-05-22T02:27:16.091Z,19.60
2023-05-22T02:27:47.561Z,19.57
2023-05-22T02:28:18.990Z,19.57
2023-05-22T02:28:50.442Z,19.58
2023-05-22T02:29:21.877Z,19.58
2023-05-22T02:29:53.324Z,19.58
2023-05-22T02:30:24.760Z,19.56
2023-05-22T02:30:56.278Z,19.56
2023-05-22T02:31:27.832Z,19.56
2023-05-22T02:31:59.352Z,19.56
2023-05-22T02:32:30.817Z,19.57
2023-05-22T02:33:02.284Z,19.56
2023-05-22T02:33:33.750Z,19.56
2023-05-22T02:34:05.213Z,19.55
2023-05-22T02:34:36.720Z,19.55
2023-05-22T02:35:08.189Z,19.55
2023-05-22T02:35:39.658Z,19.55
2023-05-22T02:36:11.136Z,19.55
2023-05-22T02:36:42.586Z,19.55
2023-05-22T02:37:14.022Z,19.54
2023-05-22T02:37:45.468Z,19.54
2023-05-22T02:38:16.903Z,19.54
2023-05-22T02:38:48.348Z,19.54
2023-05-22T02:39:19.794Z,19.54
2023-05-22T02:39:51.227Z,19.53
2023-05-22T02:40:22.690Z,19.54
2023-05-22T02:40:54.136Z,19.53
2023-05-22T02:41:25.594Z,19.53
2023-05-22T02:41:57.027Z,19.53
2023-05-22T02:42:28.471Z,19.53
2023-05-22T02:43:00.036Z,19.51
2023-05-22T02:43:31.463Z,19.52
2023-05-22T02:44:02.892Z,19.53
2023-05-22T02:44:34.348Z,19.53
2023-05-22T02:45:05.806Z,19.49
2023-05-22T02:45:37.254Z,19.52
2023-05-22T02:46:08.703Z,19.50
2023-05-22T02:46:40.282Z,19.50
2023-05-22T02:47:11.761Z,19.51
2023-05-22T02:47:43.281Z,19.51
2023-05-22T02:48:14.760Z,19.51
2023-05-22T02:48:46.249Z,19.50
2023-05-22T02:49:17.713Z,19.52
2023-05-22T02:49:49.178Z,19.50
2023-05-22T02:50:20.648Z,19.49
2023-05-22T02:50:52.094Z,19.49
2023-05-22T02:51:23.543Z,19.48
2023-05-22T02:51:54.984Z,19.48
2023-05-22T02:52:26.413Z,19.49
2023-05-22T02:52:57.856Z,19.48
2023-05-22T02:53:29.284Z,19.48
2023-05-22T02:54:00.737Z,19.47
2023-05-22T02:54:32.165Z,19.47
2023-05-22T02:55:03.654Z,19.48
2023-05-22T02:55:35.090Z,19.47
2023-05-22T02:56:06.559Z,19.48
2023-05-22T02:56:38.112Z,19.46
2023-05-22T02:57:09.606Z,19.46
2023-05-22T02:57:41.054Z,19.47
2023-05-22T02:58:12.491Z,19.46
2023-05-22T02:58:43.952Z,19.46
2023-05-22T02:59:15.392Z,19.46
2023-05-22T02:59:46.844Z,19.45
2023-05-22T03:00:18.292Z,19.44
2023-05-22T03:00:49.731Z,19.44
2023-05-22T03:01:21.191Z,19.44
2023-05-22T03:01:52.702Z,19.44
2023-05-22T03:02:24.271Z,19.44
2023-05-22T03:02:55.789Z,19.43
2023-05-22T03:03:27.405Z,19.43
2023-05-22T03:03:59.071Z,19.43
2023-05-22T03:04:30.582Z,19.42
2023-05-22T03:05:02.073Z,19.42
2023-05-22T03:05:33.534Z,19.44
2023-05-22T03:06:04.971Z,19.42
2023-05-22T03:06:36.411Z,19.43
2023-05-22T03:07:07.870Z,19.42
2023-05-22T03:07:39.339Z,19.41
2023-05-22T03:08:10.781Z,19.40
2023-05-22T03:08:42.220Z,19.41
2023-05-22T03:09:13.671Z,19.39
2023-05-22T03:09:45.128Z,19.40
2023-05-22T03:10:16.576Z,19.40
2023-05-22T03:10:48.010Z,19.40
2023-05-22T03:11:19.448Z,19.40
2023-05-22T03:11:50.894Z,19.39
2023-05-22T03:12:22.352Z,19.40
2023-05-22T03:12:53.803Z,19.39
2023-05-22T03:13:25.252Z,19.39
2023-05-22T03:13:56.702Z,19.39
2023-05-22T03:14:28.135Z,19.39
2023-05-22T03:14:59.572Z,19.38
2023-05-22T03:15:31.018Z,19.39
2023-05-22T03:16:02.489Z,19.38
2023-05-22T03:16:33.994Z,19.38
2023-05-22T03:17:05.439Z,19.38
2023-05-22T03:17:36.944Z,19.36
2023-05-22T03:18:08.485Z,19.36
2023-05-22T03:18:39.957Z,19.36
2023-05-22T03:19:11.478Z,19.35
2023-05-22T03:19:42.969Z,19.36
2023-05-22T03:20:14.418Z,19.36
2023-05-22T03:20:45.873Z,19.35
2023-05-22T03:21:17.315Z,19.34
2023-05-22T03:21:48.763Z,19.34
2023-05-22T03:22:20.201Z,19.35
2023-05-22T03:22:51.689Z,19.34
2023-05-22T03:23:23.137Z,19.34
2023-05-22T03:23:54.575Z,19.32
2023-05-22T03:24:26.050Z,19.32
2023-05-22T03:24:57.498Z,19.32
2023-05-22T03:25:28.996Z,19.31
2023-05-22T03:26:00.456Z,19.32
2023-05-22T03:26:31.907Z,19.31
2023-05-22T03:27:03.376Z,19.30
2023-05-22T03:27:34.827Z,19.30
2023-05-22T03:28:06.300Z,19.30
2023-05-22T03:28:37.828Z,19.29
2023-05-22T03:29:09.335Z,19.30
2023-05-22T03:29:40.853Z,19.29
2023-05-22T03:30:12.299Z,19.30
2023-05-22T03:30:43.746Z,19.29
2023-05-22T03:31:15.194Z,19.28
2023-05-22T03:31:46.626Z,19.28
2023-05-22T03:32:18.078Z,19.28
2023-05-22T03:32:49.553Z,19.29
2023-05-22T03:33:21.047Z,19.28
2023-05-22T03:33:52.573Z,19.28
2023-05-22T03:34:24.144Z,19.29
2023-05-22T03:34:55.603Z,19.29
2023-05-22T03:35:27.068Z,19.28
2023-05-22T03:35:58.531Z,19.28
2023-05-22T03:36:32.366Z,19.27
2023-05-22T03:37:03.930Z,19.28
2023-05-22T03:37:35.376Z,19.27
2023-05-22T03:38:06.823Z,19.27
2023-05-22T03:38:38.291Z,19.27
2023-05-22T03:39:09.737Z,19.28
2023-05-22T03:39:41.199Z,19.28
2023-05-22T03:40:12.670Z,19.27
2023-05-22T03:40:44.110Z,19.27
2023-05-22T03:41:15.559Z,19.27
2023-05-22T03:41:47.001Z,19.27
2023-05-22T03:42:18.451Z,19.27
2023-05-22T03:42:49.893Z,19.27
2023-05-22T03:43:21.352Z,19.26
2023-05-22T03:43:52.807Z,19.25
2023-05-22T03:44:24.250Z,19.25
2023-05-22T03:44:55.706Z,19.26
2023-05-22T03:45:27.154Z,19.26
2023-05-22T03:45:58.615Z,19.25
2023-05-22T03:46:30.107Z,19.26
2023-05-22T03:47:01.589Z,19.25
2023-05-22T03:47:33.033Z,19.25
2023-05-22T03:48:04.534Z,19.24
2023-05-22T03:48:36.002Z,19.25
2023-05-22T03:49:07.449Z,19.24
2023-05-22T03:49:38.884Z,19.25
2023-05-22T03:50:10.362Z,19.23
2023-05-22T03:50:41.985Z,19.23
2023-05-22T03:51:13.552Z,19.24
2023-05-22T03:51:44.995Z,19.23
2023-05-22T03:52:16.440Z,19.22
2023-05-22T03:52:47.907Z,19.23
2023-05-22T03:53:19.354Z,19.23
2023-05-22T03:53:50.791Z,19.23
2023-05-22T03:54:22.228Z,19.23
2023-05-22T03:54:53.833Z,19.23
2023-05-22T03:55:25.310Z,19.22
2023-05-22T03:55:56.754Z,19.22
2023-05-22T03:56:28.204Z,19.21
2023-05-22T03:56:59.654Z,19.21
2023-05-22T03:57:31.093Z,19.21
2023-05-22T03:58:02.544Z,19.21
2023-05-22T03:58:33.969Z,19.21
2023-05-22T03:59:05.439Z,19.21
2023-05-22T03:59:36.901Z,19.20
2023-05-22T04:00:08.337Z,19.19
2023-05-22T04:00:39.961Z,19.19
2023-05-22T04:01:11.567Z,19.18
2023-05-22T04:01:43.009Z,19.19
2023-05-22T04:02:14.487Z,19.18
2023-05-22T04:02:45.983Z,19.19
2023-05-22T04:03:17.552Z,19.19
2023-05-22T04:03:49.038Z,19.19
2023-05-22T04:04:20.487Z,19.19
2023-05-22T04:04:51.984Z,19.20
2023-05-22T04:05:23.521Z,19.18
2023-05-22T04:05:55.102Z,19.18
2023-05-22T04:06:26.554Z,19.19
2023-05-22T04:06:58.042Z,19.18
2023-05-22T04:07:29.560Z,19.19
2023-05-22T04:08:01.013Z,19.18
2023-05-22T04:08:32.614Z,19.18
2023-05-22T04:09:04.159Z,19.18
2023-05-22T04:09:35.613Z,19.18
2023-05-22T04:10:07.073Z,19.17
2023-05-22T04:10:38.801Z,19.19
2023-05-22T04:11:10.508Z,19.17
2023-05-22T04:11:41.947Z,19.17
2023-05-22T04:12:13.387Z,19.17
2023-05-22T04:12:44.836Z,19.17
2023-05-22T04:13:16.296Z,19.16
2023-05-22T04:13:47.732Z,19.16
2023-05-22T04:14:19.169Z,19.15
2023-05-22T04:14:50.606Z,19.16
2023-05-22T04:15:22.073Z,19.16
2023-05-22T04:15:53.604Z,19.15
2023-05-22T04:16:25.278Z,19.15
2023-05-22T04:16:56.846Z,19.16
2023-05-22T04:17:28.316Z,19.16
2023-05-22T04:17:59.866Z,19.16
2023-05-22T04:18:31.372Z,19.16
2023-05-22T04:19:02.851Z,19.16
2023-05-22T04:19:34.329Z,19.15
2023-05-22T04:20:05.851Z,19.15
2023-05-22T04:20:37.409Z,19.15
2023-05-22T04:21:09.040Z,19.15
2023-05-22T04:21:40.502Z,19.14
2023-05-22T04:22:11.940Z,19.14
2023-05-22T04:22:43.382Z,19.14
2023-05-22T04:23:14.823Z,19.14
2023-05-22T04:23:46.261Z,19.14
2023-05-22T04:24:17.704Z,19.13
2023-05-22T04:24:49.335Z,19.12
2023-05-22T04:25:20.849Z,19.14
2023-05-22T04:25:52.296Z,19.14
2023-05-22T04:26:23.734Z,19.15
2023-05-22T04:26:55.198Z,19.14
2023-05-22T04:27:26.636Z,19.13
2023-05-22T04:27:58.077Z,19.15
2023-05-22T04:28:29.541Z,19.14
2023-05-22T04:29:00.982Z,19.14
2023-05-22T04:29:32.438Z,19.13
2023-05-22T04:30:03.894Z,19.14
2023-05-22T04:30:35.352Z,19.14
2023-05-22T04:31:06.867Z,19.12
2023-05-22T04:31:38.417Z,19.12
2023-05-22T04:32:09.952Z,19.11
2023-05-22T04:32:41.404Z,19.12
2023-05-22T04:33:13.009Z,19.11
2023-05-22T04:33:44.484Z,19.12
2023-05-22T04:34:15.920Z,19.11
2023-05-22T04:34:47.360Z,19.11
2023-05-22T04:35:18.830Z,19.10
2023-05-22T04:35:50.271Z,19.12
2023-05-22T04:36:21.728Z,19.11
2023-05-22T04:36:53.195Z,19.11
2023-05-22T04:37:24.645Z,19.11
2023-05-22T04:37:56.088Z,19.10
2023-05-22T04:38:27.534Z,19.10
2023-05-22T04:38:58.972Z,19.10
2023-05-22T04:39:30.419Z,19.12
2023-05-22T04:40:01.866Z,19.10
2023-05-22T04:40:33.322Z,19.10
2023-05-22T04:41:04.806Z,19.09
2023-05-22T04:41:36.313Z,19.07
2023-05-22T04:42:07.745Z,19.10
2023-05-22T04:42:39.185Z,19.10
2023-05-22T04:43:10.646Z,19.11
2023-05-22T04:43:42.082Z,19.11
2023-05-22T04:44:13.535Z,19.11
2023-05-22T04:44:45.075Z,19.10
2023-05-22T04:45:16.521Z,19.11
2023-05-22T04:45:47.968Z,19.11
2023-05-22T04:46:19.477Z,19.11
2023-05-22T04:46:50.953Z,19.11
2023-05-22T04:47:22.499Z,19.10
2023-05-22T04:47:54.037Z,19.10
2023-05-22T04:48:25.501Z,19.10
2023-05-22T04:48:56.942Z,19.10
2023-05-22T04:49:28.389Z,19.11
2023-05-22T04:49:59.844Z,19.11
2023-05-22T04:50:31.306Z,19.12
2023-05-22T04:51:02.739Z,19.12
2023-05-22T04:51:34.195Z,19.12
2023-05-22T04:52:05.642Z,19.13
2023-05-22T04:52:37.072Z,19.13
2023-05-22T04:53:08.649Z,19.12
2023-05-22T04:53:40.091Z,19.13
2023-05-22T04:54:11.559Z,19.13
2023-05-22T04:54:42.999Z,19.13
2023-05-22T04:55:14.462Z,19.13
2023-05-22T04:55:45.913Z,19.14
2023-05-22T04:56:27.863Z,19.14
2023-05-22T04:57:06.565Z,19.14
2023-05-22T04:57:38.009Z,19.14
2023-05-22T04:58:09.462Z,19.14
2023-05-22T04:58:40.910Z,19.14
2023-05-22T04:59:12.386Z,19.14
2023-05-22T04:59:43.836Z,19.14
2023-05-22T05:00:15.299Z,19.16
2023-05-22T05:00:46.776Z,19.16
2023-05-22T05:01:18.239Z,19.16
2023-05-22T05:01:49.811Z,19.15
2023-05-22T05:02:21.264Z,19.16
2023-05-22T05:02:52.762Z,19.16
2023-05-22T05:03:24.256Z,19.17
2023-05-22T05:03:55.735Z,19.16
2023-05-22T05:04:27.240Z,19.16
2023-05-22T05:04:58.736Z,19.16
2023-05-22T05:05:30.191Z,19.16
2023-05-22T05:06:01.661Z,19.16
2023-05-22T05:06:33.094Z,19.17
2023-05-22T05:07:04.534Z,19.17
2023-05-22T05:07:35.982Z,19.17
2023-05-22T05:08:07.423Z,19.17
2023-05-22T05:08:38.859Z,19.16
2023-05-22T05:09:10.307Z,19.17
2023-05-22T05:09:41.786Z,19.18
2023-05-22T05:10:13.226Z,19.18
2023-05-22T05:10:44.669Z,19.17
2023-05-22T05:11:16.141Z,19.18
2023-05-22T05:11:47.587Z,19.18
2023-05-22T05:12:19.057Z,19.17
2023-05-22T05:12:50.502Z,19.18
2023-05-22T05:13:21.934Z,19.17
2023-05-22T05:13:53.382Z,19.18
2023-05-22T05:14:24.827Z,19.18
2023-05-22T05:14:56.269Z,19.19
2023-05-22T05:15:27.703Z,19.18
2023-05-22T05:15:59.187Z,19.18
2023-05-22T05:16:30.695Z,19.18
2023-05-22T05:17:02.271Z,19.18
2023-05-22T05:17:33.777Z,19.18
2023-05-22T05:18:05.293Z,19.18
2023-05-22T05:18:36.776Z,19.18
2023-05-22T05:19:08.281Z,19.18
2023-05-22T05:19:39.834Z,19.18
2023-05-22T05:20:11.451Z,19.20
2023-05-22T05:20:42.901Z,19.19
2023-05-22T05:21:14.366Z,19.19
2023-05-22T05:21:46.021Z,19.18
2023-05-22T05:22:17.614Z,19.19
2023-05-22T05:22:49.097Z,19.19
2023-05-22T05:23:20.528Z,19.20
2023-05-22T05:23:51.992Z,19.19
2023-05-22T05:24:23.464Z,19.19
2023-05-22T05:24:54.917Z,19.20
2023-05-22T05:25:26.394Z,19.20
2023-05-22T05:25:57.821Z,19.20
2023-05-22T05:26:29.273Z,19.20
2023-05-22T05:27:00.730Z,19.21
2023-05-22T05:27:32.170Z,19.20
2023-05-22T05:28:03.614Z,19.21
2023-05-22T05:28:35.065Z,19.21
2023-05-22T05:29:06.502Z,19.20
2023-05-22T05:29:37.935Z,19.21
2023-05-22T05:30:09.381Z,19.21
2023-05-22T05:30:41.154Z,19.20
2023-05-22T05:31:12.929Z,19.21
2023-05-22T05:31:44.604Z,19.20
2023-05-22T05:32:16.199Z,19.20
2023-05-22T05:32:47.775Z,19.21
2023-05-22T05:33:19.254Z,19.20
2023-05-22T05:33:50.705Z,19.22
2023-05-22T05:34:22.150Z,19.21
2023-05-22T05:34:53.592Z,19.21
2023-05-22T05:35:25.052Z,19.21
2023-05-22T05:35:56.496Z,19.22
2023-05-22T05:36:27.957Z,19.21
2023-05-22T05:36:59.397Z,19.20
2023-05-22T05:37:30.872Z,19.21
2023-05-22T05:38:02.329Z,19.22
2023-05-22T05:38:33.771Z,19.22
2023-05-22T05:39:05.204Z,19.22
2023-05-22T05:39:36.640Z,19.23
2023-05-22T05:40:08.076Z,19.21
2023-05-22T05:40:39.701Z,19.23
2023-05-22T05:41:11.405Z,19.24
2023-05-22T05:41:42.886Z,19.24
2023-05-22T05:42:14.344Z,19.25
2023-05-22T05:42:45.797Z,19.24
2023-05-22T05:43:17.247Z,19.24
2023-05-22T05:43:48.692Z,19.24
2023-05-22T05:44:20.139Z,19.24
2023-05-22T05:44:51.584Z,19.25
2023-05-22T05:45:23.124Z,19.25
2023-05-22T05:45:54.612Z,19.25
2023-05-22T05:46:26.113Z,19.24
2023-05-22T05:46:57.602Z,19.25
2023-05-22T05:47:29.082Z,19.26
2023-05-22T05:48:00.598Z,19.27
2023-05-22T05:48:32.051Z,19.27
2023-05-22T05:49:03.522Z,19.27
2023-05-22T05:49:35.782Z,19.26
2023-05-22T05:50:07.451Z,19.27
2023-05-22T05:50:39.333Z,19.27
2023-05-22T05:51:11.004Z,19.26
2023-05-22T05:51:42.438Z,19.27
2023-05-22T05:52:13.907Z,19.27
2023-05-22T05:52:45.355Z,19.27
2023-05-22T05:53:16.808Z,19.28
2023-05-22T05:53:48.265Z,19.27
2023-05-22T05:54:19.733Z,19.30
2023-05-22T05:54:51.165Z,19.29
2023-05-22T05:55:22.602Z,19.30
2023-05-22T05:55:54.228Z,19.30
2023-05-22T05:56:25.678Z,19.30
2023-05-22T05:56:57.121Z,19.30
2023-05-22T05:57:28.601Z,19.31
2023-05-22T05:58:00.035Z,19.31
2023-05-22T05:58:31.464Z,19.31
2023-05-22T05:59:02.918Z,19.31
2023-05-22T05:59:34.368Z,19.32
2023-05-22T06:00:05.859Z,19.32
2023-05-22T06:00:37.395Z,19.33
2023-05-22T06:01:08.966Z,19.33
2023-05-22T06:01:40.510Z,19.33
2023-05-22T06:02:12.065Z,19.33
2023-05-22T06:02:43.673Z,19.34
2023-05-22T06:03:15.283Z,19.35
2023-05-22T06:03:46.990Z,19.34
2023-05-22T06:04:18.664Z,19.34
2023-05-22T06:04:50.114Z,19.35
2023-05-22T06:05:21.645Z,19.36
2023-05-22T06:05:53.157Z,19.35
2023-05-22T06:06:24.672Z,19.35
2023-05-22T06:06:56.134Z,19.36
2023-05-22T06:07:27.576Z,19.36
2023-05-22T06:07:59.027Z,19.38
2023-05-22T06:08:30.502Z,19.38
2023-05-22T06:09:01.942Z,19.38
2023-05-22T06:09:33.435Z,19.38
2023-05-22T06:10:04.967Z,19.40
2023-05-22T06:10:36.420Z,19.40
2023-05-22T06:11:07.869Z,19.39
2023-05-22T06:11:39.309Z,19.39
2023-05-22T06:12:10.750Z,19.40
2023-05-22T06:12:42.191Z,19.40
2023-05-22T06:13:13.653Z,19.41
2023-05-22T06:13:45.090Z,19.41
2023-05-22T06:14:16.572Z,19.41
2023-05-22T06:14:48.027Z,19.41
2023-05-22T06:15:19.460Z,19.41
2023-05-22T06:15:51.001Z,19.40
2023-05-22T06:16:22.501Z,19.42
2023-05-22T06:16:53.975Z,19.43
2023-05-22T06:17:25.441Z,19.43
2023-05-22T06:17:56.933Z,19.42
2023-05-22T06:18:28.546Z,19.45
2023-05-22T06:19:00.184Z,19.44
2023-05-22T06:19:31.788Z,19.42
2023-05-22T06:20:03.258Z,19.43
2023-05-22T06:20:34.698Z,19.45
2023-05-22T06:21:06.156Z,19.45
2023-05-22T06:21:37.621Z,19.43
2023-05-22T06:22:09.144Z,19.45
2023-05-22T06:22:40.583Z,19.45
2023-05-22T06:23:12.026Z,19.46
2023-05-22T06:23:43.492Z,19.46
2023-05-22T06:24:14.955Z,19.46
2023-05-22T06:24:46.390Z,19.47
2023-05-22T06:25:17.825Z,19.47
2023-05-22T06:25:49.261Z,19.47
2023-05-22T06:26:20.716Z,19.48
2023-05-22T06:26:52.151Z,19.49
2023-05-22T06:27:23.632Z,19.49
2023-05-22T06:27:55.065Z,19.50
2023-05-22T06:28:26.499Z,19.49
2023-05-22T06:28:57.948Z,19.50
2023-05-22T06:29:29.402Z,19.50
2023-05-22T06:30:00.892Z,19.49
2023-05-22T06:30:40.124Z,19.49
2023-05-22T06:31:12.005Z,19.51
2023-05-22T06:31:43.478Z,19.49
2023-05-22T06:32:14.978Z,19.49
2023-05-22T06:32:46.829Z,19.50
2023-05-22T06:33:18.462Z,19.50
2023-05-22T06:33:50.087Z,19.50
2023-05-22T06:34:21.711Z,19.52
2023-05-22T06:34:53.250Z,19.50
2023-05-22T06:35:24.691Z,19.51
2023-05-22T06:35:56.128Z,19.50
2023-05-22T06:36:27.580Z,19.50
2023-05-22T06:36:59.036Z,19.52
2023-05-22T06:37:30.498Z,19.53
2023-05-22T06:38:01.983Z,19.53
2023-05-22T06:38:33.470Z,19.53
2023-05-22T06:39:05.010Z,19.53
2023-05-22T06:39:36.500Z,19.53
2023-05-22T06:40:07.977Z,19.54
2023-05-22T06:40:39.583Z,19.53
2023-05-22T06:41:11.203Z,19.54
2023-05-22T06:41:42.637Z,19.53
2023-05-22T06:42:14.079Z,19.53
2023-05-22T06:42:45.701Z,19.53
2023-05-22T06:43:17.162Z,19.53
2023-05-22T06:43:48.748Z,19.53
2023-05-22T06:44:20.231Z,19.52
2023-05-22T06:44:51.667Z,19.53
2023-05-22T06:45:23.109Z,19.54
2023-05-22T06:45:54.554Z,19.52